X  Sluiten METAR luchtvaart weer gegevens         EBOS Ostend-Bruges International Airport
Temperatuur
11°C Temperatuur
7°C Dauwpunt
77% Vochtigheid



Wind
54 KM/U
33 MPH
15 M/S
29 KTS



290°
WNW
Huidig weer

Partly Cloudy Wat bewolking
Luchtdruk 998 (hPa) - 29.47 (inHg)
Zicht 30 (mijl) - 48 (km)
Vliegveld
Vliegveld code EBOS

Locatie : Ostend-Bruges International Airport
Afstand: 60 (km)

Metar:
METAR EBOS 210520Z 29029G39KT 9999 SCT023 11/07 Q0998 NOSIG

Tijd: 21-10-2021 07:20 CEST